Airfield :
LOGIN :

Register | Disclaimer

   EN    FR    IT 

 










Legend :    VFR   Marginal VFR   IFR   Intensive IFR   Very Intensive IFR
Visi :
Ceiling :
>= 8 km
>= 3000ft
5 to 8 km
1000 to 3000 ft
1500m to 5 km
500 to 1000 ft
800 to 1500m
200 to 500 ft
< 800m
< 200 ft
Symbols :   Thunderstorms  Fog  Heavy snow  Heavy precipitations  Wind > 20 kt
SIGMETs :     Misc.  Thunderstorms  Icing  Turbulence  Mountain Waves  Volcanic Ashes







- Airport Elevation : 978 ft
- IATA code : LNZ


LOWL - Linz

CURRENT METAR :
  • 252020Z AUTO 28017KT 9999 FEW020 BKN036 04/00 Q1020 NOSIG

EXPIRED METARs :
  • 251950Z AUTO 26012KT 9999 FEW022 SCT030 03/01 Q1020 NOSIG
  • 251920Z AUTO 25012KT 9999 FEW038 SCT042 02/00 Q1019 NOSIG
  • 251850Z AUTO 26010KT 9999 FEW042 02/00 Q1019 NOSIG
  • 251820Z AUTO 27011KT 9999 FEW060 BKN140 03/00 Q1020 NOSIG
  • 251750Z AUTO 25019KT 9999 -SHRA FEW009 BKN060 03/00 Q1019 NOSIG

TAF TAF LOWL
Valid from the 25 at 18:00 until the 26 at 18:00 UTC


251715Z 2518/2618 26013KT 9999 SCT045 SCT080 TX08/2614Z TN03/2603Z
TEMPO 2518/2520 28015G25KT -SHRA FEW030TCU BKN040
TEMPO 2523/2608 28005KT 5000 -RASN SCT008 BKN015
TEMPO 2608/2615 29017G27KT
No reported NOTAMs for that airfield.
1 SIGMET reported for the Wien FIR (LOVV) :
 
Severe turbulence
LOVV SIGMET 2 VALID 252025/252230 LOWW
LOVV WIEN FIR SEV TURB OBS WI N4900 E01641 - N4818 E01715 - N4635 E01251 - N4641 E01049 - N4701 E00928 - N4900 E01641 FL140/240 STNR NC=



MET'MAP, your aeronautical weather chart ! - Copyright ORBIFLY December 2007 - Disclaimer

ORBIFLY MET'MAP TEAM :

Programming & Development : Alexandra Zaïnal
Concept & Development : Baudouin d'Aumeries
Co-Development & Prog : Marc-Olivier Méhu
Technical & hardware support : Manuel Goepfert

Contact : metmap@orbifly.com




SOURCES & CREDITS :

   NOAA